sensor_id;sensor_type;location;lat;lon;timestamp;P1;durP1;ratioP1;P2;durP2;ratioP2
8704;SDS011;4389;41.932;25.904;2024-03-17T00:01:08;24.43;;;18.73;;
8704;SDS011;4389;41.932;25.904;2024-03-17T00:03:35;27.23;;;17.97;;
8704;SDS011;4389;41.932;25.904;2024-03-17T00:06:02;28.10;;;20.13;;
8704;SDS011;4389;41.932;25.904;2024-03-17T00:08:29;26.53;;;19.20;;
8704;SDS011;4389;41.932;25.904;2024-03-17T00:10:55;27.30;;;20.30;;
8704;SDS011;4389;41.932;25.904;2024-03-17T00:13:23;34.87;;;20.17;;
8704;SDS011;4389;41.932;25.904;2024-03-17T00:15:49;29.80;;;21.23;;
8704;SDS011;4389;41.932;25.904;2024-03-17T00:18:16;32.20;;;24.17;;
8704;SDS011;4389;41.932;25.904;2024-03-17T00:20:42;29.67;;;22.47;;
8704;SDS011;4389;41.932;25.904;2024-03-17T00:23:10;33.20;;;22.37;;
8704;SDS011;4389;41.932;25.904;2024-03-17T00:25:37;30.37;;;22.23;;
8704;SDS011;4389;41.932;25.904;2024-03-17T00:28:05;30.13;;;22.73;;
8704;SDS011;4389;41.932;25.904;2024-03-17T00:30:31;28.33;;;21.07;;
8704;SDS011;4389;41.932;25.904;2024-03-17T00:32:58;35.67;;;25.60;;
8704;SDS011;4389;41.932;25.904;2024-03-17T00:35:25;31.57;;;22.57;;
8704;SDS011;4389;41.932;25.904;2024-03-17T00:37:51;30.37;;;22.37;;
8704;SDS011;4389;41.932;25.904;2024-03-17T00:40:20;34.67;;;26.27;;
8704;SDS011;4389;41.932;25.904;2024-03-17T00:42:47;34.53;;;23.60;;
8704;SDS011;4389;41.932;25.904;2024-03-17T00:45:13;31.33;;;22.67;;
8704;SDS011;4389;41.932;25.904;2024-03-17T00:47:41;36.30;;;26.80;;
8704;SDS011;4389;41.932;25.904;2024-03-17T00:50:07;30.63;;;23.07;;
8704;SDS011;4389;41.932;25.904;2024-03-17T00:52:36;28.77;;;22.00;;
8704;SDS011;4389;41.932;25.904;2024-03-17T00:55:03;30.97;;;21.73;;
8704;SDS011;4389;41.932;25.904;2024-03-17T00:57:31;37.10;;;28.33;;
8704;SDS011;4389;41.932;25.904;2024-03-17T00:59:57;31.27;;;22.37;;
8704;SDS011;4389;41.932;25.904;2024-03-17T01:02:24;32.87;;;23.70;;
8704;SDS011;4389;41.932;25.904;2024-03-17T01:04:50;32.07;;;25.67;;
8704;SDS011;4389;41.932;25.904;2024-03-17T01:07:17;32.73;;;24.03;;
8704;SDS011;4389;41.932;25.904;2024-03-17T01:09:43;34.00;;;21.33;;
8704;SDS011;4389;41.932;25.904;2024-03-17T01:12:10;32.93;;;23.30;;
8704;SDS011;4389;41.932;25.904;2024-03-17T01:14:37;41.00;;;26.10;;
8704;SDS011;4389;41.932;25.904;2024-03-17T01:17:04;38.53;;;25.57;;
8704;SDS011;4389;41.932;25.904;2024-03-17T01:19:30;36.37;;;24.60;;
8704;SDS011;4389;41.932;25.904;2024-03-17T01:21:57;35.57;;;24.73;;
8704;SDS011;4389;41.932;25.904;2024-03-17T01:24:23;35.33;;;23.07;;
8704;SDS011;4389;41.932;25.904;2024-03-17T01:26:51;33.47;;;24.43;;
8704;SDS011;4389;41.932;25.904;2024-03-17T01:29:18;34.80;;;24.37;;
8704;SDS011;4389;41.932;25.904;2024-03-17T01:31:46;41.97;;;26.13;;
8704;SDS011;4389;41.932;25.904;2024-03-17T01:34:13;35.70;;;23.93;;
8704;SDS011;4389;41.932;25.904;2024-03-17T01:36:40;36.63;;;25.63;;
8704;SDS011;4389;41.932;25.904;2024-03-17T01:39:05;40.00;;;27.53;;
8704;SDS011;4389;41.932;25.904;2024-03-17T01:41:32;38.50;;;24.57;;
8704;SDS011;4389;41.932;25.904;2024-03-17T01:43:59;33.30;;;24.67;;
8704;SDS011;4389;41.932;25.904;2024-03-17T01:46:25;46.57;;;28.57;;
8704;SDS011;4389;41.932;25.904;2024-03-17T01:48:54;34.90;;;24.17;;
8704;SDS011;4389;41.932;25.904;2024-03-17T01:51:20;31.20;;;22.13;;
8704;SDS011;4389;41.932;25.904;2024-03-17T01:53:48;35.17;;;24.87;;
8704;SDS011;4389;41.932;25.904;2024-03-17T01:56:15;36.43;;;23.37;;
8704;SDS011;4389;41.932;25.904;2024-03-17T01:58:43;35.73;;;25.70;;
8704;SDS011;4389;41.932;25.904;2024-03-17T02:01:10;38.87;;;26.30;;
8704;SDS011;4389;41.932;25.904;2024-03-17T02:03:39;39.50;;;24.27;;
8704;SDS011;4389;41.932;25.904;2024-03-17T02:06:06;35.93;;;24.87;;
8704;SDS011;4389;41.932;25.904;2024-03-17T02:08:46;40.10;;;23.70;;
8704;SDS011;4389;41.932;25.904;2024-03-17T02:11:22;34.50;;;23.90;;
8704;SDS011;4389;41.932;25.904;2024-03-17T02:13:50;30.97;;;23.33;;
8704;SDS011;4389;41.932;25.904;2024-03-17T02:16:17;31.97;;;24.17;;
8704;SDS011;4389;41.932;25.904;2024-03-17T02:18:45;35.90;;;24.10;;
8704;SDS011;4389;41.932;25.904;2024-03-17T02:21:13;37.23;;;24.03;;
8704;SDS011;4389;41.932;25.904;2024-03-17T02:23:41;38.10;;;25.73;;
8704;SDS011;4389;41.932;25.904;2024-03-17T02:26:09;34.57;;;24.33;;
8704;SDS011;4389;41.932;25.904;2024-03-17T02:28:38;32.10;;;23.33;;
8704;SDS011;4389;41.932;25.904;2024-03-17T02:31:07;32.87;;;24.30;;
8704;SDS011;4389;41.932;25.904;2024-03-17T02:33:33;33.70;;;25.30;;
8704;SDS011;4389;41.932;25.904;2024-03-17T02:36:00;34.93;;;25.57;;
8704;SDS011;4389;41.932;25.904;2024-03-17T02:38:26;38.90;;;26.87;;
8704;SDS011;4389;41.932;25.904;2024-03-17T02:41:12;39.63;;;27.00;;
8704;SDS011;4389;41.932;25.904;2024-03-17T02:43:39;37.90;;;27.97;;
8704;SDS011;4389;41.932;25.904;2024-03-17T02:46:06;38.47;;;26.77;;
8704;SDS011;4389;41.932;25.904;2024-03-17T02:48:33;37.83;;;26.87;;
8704;SDS011;4389;41.932;25.904;2024-03-17T02:51:01;38.10;;;28.13;;
8704;SDS011;4389;41.932;25.904;2024-03-17T02:53:29;43.93;;;29.73;;
8704;SDS011;4389;41.932;25.904;2024-03-17T02:55:56;40.87;;;28.43;;
8704;SDS011;4389;41.932;25.904;2024-03-17T02:58:24;42.13;;;26.37;;
8704;SDS011;4389;41.932;25.904;2024-03-17T03:00:51;42.07;;;27.27;;
8704;SDS011;4389;41.932;25.904;2024-03-17T03:03:19;38.70;;;26.63;;
8704;SDS011;4389;41.932;25.904;2024-03-17T03:05:45;42.53;;;27.37;;
8704;SDS011;4389;41.932;25.904;2024-03-17T03:08:14;47.60;;;27.90;;
8704;SDS011;4389;41.932;25.904;2024-03-17T03:10:43;41.13;;;26.97;;
8704;SDS011;4389;41.932;25.904;2024-03-17T03:13:10;45.40;;;28.57;;
8704;SDS011;4389;41.932;25.904;2024-03-17T03:15:38;42.53;;;27.47;;
8704;SDS011;4389;41.932;25.904;2024-03-17T03:18:05;44.20;;;26.00;;
8704;SDS011;4389;41.932;25.904;2024-03-17T03:20:32;42.43;;;28.63;;
8704;SDS011;4389;41.932;25.904;2024-03-17T03:22:59;42.00;;;27.93;;
8704;SDS011;4389;41.932;25.904;2024-03-17T03:25:26;43.87;;;27.23;;
8704;SDS011;4389;41.932;25.904;2024-03-17T03:27:53;43.87;;;27.23;;
8704;SDS011;4389;41.932;25.904;2024-03-17T03:30:22;40.90;;;25.83;;
8704;SDS011;4389;41.932;25.904;2024-03-17T03:32:51;40.23;;;26.87;;
8704;SDS011;4389;41.932;25.904;2024-03-17T03:35:18;37.57;;;26.10;;
8704;SDS011;4389;41.932;25.904;2024-03-17T03:37:45;40.43;;;26.47;;
8704;SDS011;4389;41.932;25.904;2024-03-17T03:40:11;40.37;;;26.00;;
8704;SDS011;4389;41.932;25.904;2024-03-17T03:42:41;44.60;;;26.40;;
8704;SDS011;4389;41.932;25.904;2024-03-17T03:45:08;39.07;;;26.30;;
8704;SDS011;4389;41.932;25.904;2024-03-17T03:47:37;38.80;;;26.37;;
8704;SDS011;4389;41.932;25.904;2024-03-17T03:50:07;41.03;;;25.87;;
8704;SDS011;4389;41.932;25.904;2024-03-17T03:52:35;38.17;;;26.60;;
8704;SDS011;4389;41.932;25.904;2024-03-17T03:55:02;43.07;;;26.97;;
8704;SDS011;4389;41.932;25.904;2024-03-17T03:57:32;46.20;;;28.07;;
8704;SDS011;4389;41.932;25.904;2024-03-17T03:59:59;46.13;;;27.53;;
8704;SDS011;4389;41.932;25.904;2024-03-17T04:02:31;45.53;;;28.00;;
8704;SDS011;4389;41.932;25.904;2024-03-17T04:04:59;46.33;;;28.83;;
8704;SDS011;4389;41.932;25.904;2024-03-17T04:07:27;46.27;;;29.27;;
8704;SDS011;4389;41.932;25.904;2024-03-17T04:09:54;48.43;;;29.50;;
8704;SDS011;4389;41.932;25.904;2024-03-17T04:12:21;41.83;;;27.33;;
8704;SDS011;4389;41.932;25.904;2024-03-17T04:14:48;41.57;;;25.80;;
8704;SDS011;4389;41.932;25.904;2024-03-17T04:17:17;108.43;;;27.33;;
8704;SDS011;4389;41.932;25.904;2024-03-17T04:19:46;170.27;;;28.03;;
8704;SDS011;4389;41.932;25.904;2024-03-17T04:22:14;145.93;;;27.97;;
8704;SDS011;4389;41.932;25.904;2024-03-17T04:24:43;155.37;;;25.60;;
8704;SDS011;4389;41.932;25.904;2024-03-17T04:27:10;161.30;;;28.03;;
8704;SDS011;4389;41.932;25.904;2024-03-17T04:29:37;158.20;;;28.90;;
8704;SDS011;4389;41.932;25.904;2024-03-17T04:32:04;140.00;;;28.07;;
8704;SDS011;4389;41.932;25.904;2024-03-17T04:34:31;56.23;;;27.33;;
8704;SDS011;4389;41.932;25.904;2024-03-17T04:36:58;106.60;;;29.63;;
8704;SDS011;4389;41.932;25.904;2024-03-17T04:39:25;63.47;;;28.37;;
8704;SDS011;4389;41.932;25.904;2024-03-17T04:41:53;47.63;;;25.90;;
8704;SDS011;4389;41.932;25.904;2024-03-17T04:44:20;41.40;;;25.80;;
8704;SDS011;4389;41.932;25.904;2024-03-17T04:46:47;51.97;;;26.03;;
8704;SDS011;4389;41.932;25.904;2024-03-17T04:49:13;42.17;;;25.93;;
8704;SDS011;4389;41.932;25.904;2024-03-17T04:51:40;39.57;;;25.40;;
8704;SDS011;4389;41.932;25.904;2024-03-17T04:54:07;55.17;;;25.10;;
8704;SDS011;4389;41.932;25.904;2024-03-17T04:56:34;44.80;;;23.57;;
8704;SDS011;4389;41.932;25.904;2024-03-17T04:59:02;35.17;;;25.83;;
8704;SDS011;4389;41.932;25.904;2024-03-17T05:01:30;36.00;;;25.77;;
8704;SDS011;4389;41.932;25.904;2024-03-17T05:04:01;34.70;;;25.27;;
8704;SDS011;4389;41.932;25.904;2024-03-17T05:06:29;32.73;;;23.43;;
8704;SDS011;4389;41.932;25.904;2024-03-17T05:08:56;34.53;;;26.30;;
8704;SDS011;4389;41.932;25.904;2024-03-17T05:11:23;33.30;;;24.80;;
8704;SDS011;4389;41.932;25.904;2024-03-17T05:13:50;33.97;;;23.87;;
8704;SDS011;4389;41.932;25.904;2024-03-17T05:16:18;33.37;;;24.27;;
8704;SDS011;4389;41.932;25.904;2024-03-17T05:18:48;37.17;;;24.80;;
8704;SDS011;4389;41.932;25.904;2024-03-17T05:21:15;39.03;;;27.60;;
8704;SDS011;4389;41.932;25.904;2024-03-17T05:23:41;35.53;;;26.40;;
8704;SDS011;4389;41.932;25.904;2024-03-17T05:26:08;52.43;;;30.60;;
8704;SDS011;4389;41.932;25.904;2024-03-17T05:28:35;51.43;;;32.07;;
8704;SDS011;4389;41.932;25.904;2024-03-17T05:31:02;52.17;;;32.00;;
8704;SDS011;4389;41.932;25.904;2024-03-17T05:33:31;65.40;;;35.17;;
8704;SDS011;4389;41.932;25.904;2024-03-17T05:35:58;46.77;;;34.10;;
8704;SDS011;4389;41.932;25.904;2024-03-17T05:38:28;46.60;;;33.60;;
8704;SDS011;4389;41.932;25.904;2024-03-17T05:40:56;47.20;;;33.40;;
8704;SDS011;4389;41.932;25.904;2024-03-17T05:43:25;45.77;;;31.40;;
8704;SDS011;4389;41.932;25.904;2024-03-17T05:45:52;50.83;;;33.77;;
8704;SDS011;4389;41.932;25.904;2024-03-17T05:48:20;44.67;;;31.63;;
8704;SDS011;4389;41.932;25.904;2024-03-17T05:50:49;46.70;;;35.60;;
8704;SDS011;4389;41.932;25.904;2024-03-17T05:53:16;38.57;;;29.33;;
8704;SDS011;4389;41.932;25.904;2024-03-17T05:55:43;40.90;;;30.03;;
8704;SDS011;4389;41.932;25.904;2024-03-17T05:58:11;46.87;;;32.43;;
8704;SDS011;4389;41.932;25.904;2024-03-17T06:00:38;43.50;;;32.60;;
8704;SDS011;4389;41.932;25.904;2024-03-17T06:03:05;48.00;;;33.37;;
8704;SDS011;4389;41.932;25.904;2024-03-17T06:05:33;41.40;;;33.07;;
8704;SDS011;4389;41.932;25.904;2024-03-17T06:08:01;47.30;;;38.27;;
8704;SDS011;4389;41.932;25.904;2024-03-17T06:10:29;45.10;;;33.17;;
8704;SDS011;4389;41.932;25.904;2024-03-17T06:12:56;42.87;;;36.27;;
8704;SDS011;4389;41.932;25.904;2024-03-17T06:15:23;45.10;;;35.17;;
8704;SDS011;4389;41.932;25.904;2024-03-17T06:17:51;42.90;;;36.63;;
8704;SDS011;4389;41.932;25.904;2024-03-17T06:20:18;47.07;;;37.30;;
8704;SDS011;4389;41.932;25.904;2024-03-17T06:22:45;37.20;;;29.80;;
8704;SDS011;4389;41.932;25.904;2024-03-17T06:25:13;36.63;;;29.63;;
8704;SDS011;4389;41.932;25.904;2024-03-17T06:27:40;37.93;;;29.80;;
8704;SDS011;4389;41.932;25.904;2024-03-17T06:30:10;35.47;;;25.13;;
8704;SDS011;4389;41.932;25.904;2024-03-17T06:32:39;40.87;;;26.27;;
8704;SDS011;4389;41.932;25.904;2024-03-17T06:35:06;48.40;;;27.17;;
8704;SDS011;4389;41.932;25.904;2024-03-17T06:37:34;43.67;;;26.40;;
8704;SDS011;4389;41.932;25.904;2024-03-17T06:40:01;32.10;;;21.57;;
8704;SDS011;4389;41.932;25.904;2024-03-17T06:42:30;28.57;;;20.63;;
8704;SDS011;4389;41.932;25.904;2024-03-17T06:44:57;30.87;;;20.00;;
8704;SDS011;4389;41.932;25.904;2024-03-17T06:47:23;30.23;;;20.67;;
8704;SDS011;4389;41.932;25.904;2024-03-17T06:49:51;27.37;;;20.03;;
8704;SDS011;4389;41.932;25.904;2024-03-17T06:52:18;28.57;;;19.90;;
8704;SDS011;4389;41.932;25.904;2024-03-17T06:54:46;26.20;;;19.10;;
8704;SDS011;4389;41.932;25.904;2024-03-17T06:57:15;23.27;;;17.83;;
8704;SDS011;4389;41.932;25.904;2024-03-17T06:59:43;23.73;;;18.63;;
8704;SDS011;4389;41.932;25.904;2024-03-17T07:02:11;27.27;;;19.57;;
8704;SDS011;4389;41.932;25.904;2024-03-17T07:04:42;24.97;;;18.77;;
8704;SDS011;4389;41.932;25.904;2024-03-17T07:07:09;26.40;;;18.63;;
8704;SDS011;4389;41.932;25.904;2024-03-17T07:09:37;25.60;;;17.50;;
8704;SDS011;4389;41.932;25.904;2024-03-17T07:12:05;23.70;;;18.17;;
8704;SDS011;4389;41.932;25.904;2024-03-17T07:14:34;29.80;;;19.13;;
8704;SDS011;4389;41.932;25.904;2024-03-17T07:17:03;20.00;;;15.60;;
8704;SDS011;4389;41.932;25.904;2024-03-17T07:19:30;24.17;;;17.07;;
8704;SDS011;4389;41.932;25.904;2024-03-17T07:21:57;23.87;;;16.57;;
8704;SDS011;4389;41.932;25.904;2024-03-17T07:24:24;21.80;;;16.60;;
8704;SDS011;4389;41.932;25.904;2024-03-17T07:26:53;22.77;;;16.33;;
8704;SDS011;4389;41.932;25.904;2024-03-17T07:29:20;25.43;;;16.50;;
8704;SDS011;4389;41.932;25.904;2024-03-17T07:31:46;25.37;;;16.83;;
8704;SDS011;4389;41.932;25.904;2024-03-17T07:34:15;23.27;;;17.27;;
8704;SDS011;4389;41.932;25.904;2024-03-17T07:36:41;20.87;;;16.23;;
8704;SDS011;4389;41.932;25.904;2024-03-17T07:39:08;29.87;;;17.63;;
8704;SDS011;4389;41.932;25.904;2024-03-17T07:41:37;25.57;;;18.10;;
8704;SDS011;4389;41.932;25.904;2024-03-17T07:44:04;27.23;;;19.83;;
8704;SDS011;4389;41.932;25.904;2024-03-17T07:46:31;23.80;;;17.93;;
8704;SDS011;4389;41.932;25.904;2024-03-17T07:48:57;23.40;;;17.57;;
8704;SDS011;4389;41.932;25.904;2024-03-17T07:51:26;28.00;;;18.60;;
8704;SDS011;4389;41.932;25.904;2024-03-17T07:53:53;24.13;;;17.07;;
8704;SDS011;4389;41.932;25.904;2024-03-17T07:56:20;23.57;;;18.23;;
8704;SDS011;4389;41.932;25.904;2024-03-17T07:58:46;26.03;;;17.77;;
8704;SDS011;4389;41.932;25.904;2024-03-17T08:01:15;25.40;;;19.63;;
8704;SDS011;4389;41.932;25.904;2024-03-17T08:03:44;22.97;;;18.93;;
8704;SDS011;4389;41.932;25.904;2024-03-17T08:06:12;23.20;;;18.00;;
8704;SDS011;4389;41.932;25.904;2024-03-17T08:08:40;29.17;;;19.47;;
8704;SDS011;4389;41.932;25.904;2024-03-17T08:11:07;24.27;;;19.17;;
8704;SDS011;4389;41.932;25.904;2024-03-17T08:13:34;27.57;;;18.23;;
8704;SDS011;4389;41.932;25.904;2024-03-17T08:16:02;25.07;;;19.40;;
8704;SDS011;4389;41.932;25.904;2024-03-17T08:18:31;26.03;;;18.73;;
8704;SDS011;4389;41.932;25.904;2024-03-17T08:20:59;26.67;;;19.67;;
8704;SDS011;4389;41.932;25.904;2024-03-17T08:23:26;25.53;;;19.60;;
8704;SDS011;4389;41.932;25.904;2024-03-17T08:25:54;25.13;;;18.83;;
8704;SDS011;4389;41.932;25.904;2024-03-17T08:28:22;21.77;;;18.67;;
8704;SDS011;4389;41.932;25.904;2024-03-17T08:30:53;25.07;;;19.33;;
8704;SDS011;4389;41.932;25.904;2024-03-17T08:33:20;27.73;;;18.47;;
8704;SDS011;4389;41.932;25.904;2024-03-17T08:35:54;21.63;;;18.30;;
8704;SDS011;4389;41.932;25.904;2024-03-17T08:38:22;33.43;;;19.37;;
8704;SDS011;4389;41.932;25.904;2024-03-17T08:40:49;22.73;;;18.10;;
8704;SDS011;4389;41.932;25.904;2024-03-17T08:43:17;25.20;;;18.77;;
8704;SDS011;4389;41.932;25.904;2024-03-17T08:45:45;25.53;;;17.53;;
8704;SDS011;4389;41.932;25.904;2024-03-17T08:48:12;26.07;;;18.83;;
8704;SDS011;4389;41.932;25.904;2024-03-17T08:50:38;20.83;;;17.33;;
8704;SDS011;4389;41.932;25.904;2024-03-17T08:53:05;26.33;;;18.03;;
8704;SDS011;4389;41.932;25.904;2024-03-17T08:55:32;19.27;;;17.13;;
8704;SDS011;4389;41.932;25.904;2024-03-17T08:57:59;20.47;;;17.70;;
8704;SDS011;4389;41.932;25.904;2024-03-17T09:00:27;25.53;;;17.73;;
8704;SDS011;4389;41.932;25.904;2024-03-17T09:02:55;23.07;;;17.57;;
8704;SDS011;4389;41.932;25.904;2024-03-17T09:05:22;20.17;;;16.90;;
8704;SDS011;4389;41.932;25.904;2024-03-17T09:07:49;24.07;;;18.40;;
8704;SDS011;4389;41.932;25.904;2024-03-17T09:10:16;22.87;;;18.90;;
8704;SDS011;4389;41.932;25.904;2024-03-17T09:12:43;21.57;;;17.67;;
8704;SDS011;4389;41.932;25.904;2024-03-17T09:15:12;29.90;;;17.37;;
8704;SDS011;4389;41.932;25.904;2024-03-17T09:17:41;20.27;;;17.47;;
8704;SDS011;4389;41.932;25.904;2024-03-17T09:20:09;27.30;;;17.60;;
8704;SDS011;4389;41.932;25.904;2024-03-17T09:22:40;25.27;;;17.43;;
8704;SDS011;4389;41.932;25.904;2024-03-17T09:25:07;23.63;;;17.30;;
8704;SDS011;4389;41.932;25.904;2024-03-17T09:27:34;22.70;;;17.20;;
8704;SDS011;4389;41.932;25.904;2024-03-17T09:30:02;25.23;;;17.47;;
8704;SDS011;4389;41.932;25.904;2024-03-17T09:32:31;21.23;;;17.57;;
8704;SDS011;4389;41.932;25.904;2024-03-17T09:34:59;19.80;;;16.97;;
8704;SDS011;4389;41.932;25.904;2024-03-17T09:37:26;25.87;;;17.00;;
8704;SDS011;4389;41.932;25.904;2024-03-17T09:39:53;24.10;;;17.63;;
8704;SDS011;4389;41.932;25.904;2024-03-17T09:42:22;20.53;;;16.13;;
8704;SDS011;4389;41.932;25.904;2024-03-17T09:44:49;22.80;;;16.37;;
8704;SDS011;4389;41.932;25.904;2024-03-17T09:47:19;24.00;;;15.67;;
8704;SDS011;4389;41.932;25.904;2024-03-17T09:49:46;18.07;;;14.53;;
8704;SDS011;4389;41.932;25.904;2024-03-17T09:52:18;19.37;;;16.03;;
8704;SDS011;4389;41.932;25.904;2024-03-17T09:54:49;22.37;;;15.13;;
8704;SDS011;4389;41.932;25.904;2024-03-17T09:57:19;19.67;;;15.87;;
8704;SDS011;4389;41.932;25.904;2024-03-17T09:59:51;19.93;;;15.13;;
8704;SDS011;4389;41.932;25.904;2024-03-17T10:02:20;23.83;;;18.30;;
8704;SDS011;4389;41.932;25.904;2024-03-17T10:04:47;19.73;;;16.50;;
8704;SDS011;4389;41.932;25.904;2024-03-17T10:07:14;21.37;;;17.10;;
8704;SDS011;4389;41.932;25.904;2024-03-17T10:09:43;25.80;;;16.27;;
8704;SDS011;4389;41.932;25.904;2024-03-17T10:12:26;22.50;;;15.67;;
8704;SDS011;4389;41.932;25.904;2024-03-17T10:15:00;18.40;;;15.90;;
8704;SDS011;4389;41.932;25.904;2024-03-17T10:17:30;22.77;;;14.70;;
8704;SDS011;4389;41.932;25.904;2024-03-17T10:20:14;17.90;;;14.70;;
8704;SDS011;4389;41.932;25.904;2024-03-17T10:22:57;17.23;;;15.40;;
8704;SDS011;4389;41.932;25.904;2024-03-17T10:25:26;22.73;;;15.77;;
8704;SDS011;4389;41.932;25.904;2024-03-17T10:27:54;17.63;;;15.00;;
8704;SDS011;4389;41.932;25.904;2024-03-17T10:30:22;17.67;;;13.67;;
8704;SDS011;4389;41.932;25.904;2024-03-17T10:32:52;17.53;;;14.57;;
8704;SDS011;4389;41.932;25.904;2024-03-17T10:35:26;17.63;;;14.33;;
8704;SDS011;4389;41.932;25.904;2024-03-17T10:37:55;17.10;;;14.07;;
8704;SDS011;4389;41.932;25.904;2024-03-17T10:40:24;17.03;;;13.20;;
8704;SDS011;4389;41.932;25.904;2024-03-17T10:42:53;20.57;;;12.80;;
8704;SDS011;4389;41.932;25.904;2024-03-17T10:45:20;15.53;;;11.83;;
8704;SDS011;4389;41.932;25.904;2024-03-17T10:47:48;15.80;;;12.83;;
8704;SDS011;4389;41.932;25.904;2024-03-17T10:50:17;21.43;;;13.27;;
8704;SDS011;4389;41.932;25.904;2024-03-17T10:52:46;16.50;;;13.33;;
8704;SDS011;4389;41.932;25.904;2024-03-17T10:55:20;11.73;;;10.53;;
8704;SDS011;4389;41.932;25.904;2024-03-17T10:57:48;13.20;;;11.37;;
8704;SDS011;4389;41.932;25.904;2024-03-17T11:00:18;14.43;;;11.70;;
8704;SDS011;4389;41.932;25.904;2024-03-17T11:02:47;12.00;;;10.73;;
8704;SDS011;4389;41.932;25.904;2024-03-17T11:05:17;12.73;;;11.00;;
8704;SDS011;4389;41.932;25.904;2024-03-17T11:07:46;13.30;;;10.63;;
8704;SDS011;4389;41.932;25.904;2024-03-17T11:10:15;12.13;;;10.03;;
8704;SDS011;4389;41.932;25.904;2024-03-17T11:12:44;14.67;;;11.37;;
8704;SDS011;4389;41.932;25.904;2024-03-17T11:21:00;13.97;;;10.17;;
8704;SDS011;4389;41.932;25.904;2024-03-17T11:23:34;10.30;;;9.13;;
8704;SDS011;4389;41.932;25.904;2024-03-17T11:26:03;9.30;;;8.40;;
8704;SDS011;4389;41.932;25.904;2024-03-17T11:28:44;12.10;;;8.77;;
8704;SDS011;4389;41.932;25.904;2024-03-17T11:31:35;16.77;;;8.97;;
8704;SDS011;4389;41.932;25.904;2024-03-17T11:34:06;13.13;;;8.80;;
8704;SDS011;4389;41.932;25.904;2024-03-17T11:36:52;8.90;;;7.60;;
8704;SDS011;4389;41.932;25.904;2024-03-17T11:39:20;8.77;;;7.97;;
8704;SDS011;4389;41.932;25.904;2024-03-17T11:41:48;8.70;;;7.47;;
8704;SDS011;4389;41.932;25.904;2024-03-17T11:44:23;10.70;;;7.57;;
8704;SDS011;4389;41.932;25.904;2024-03-17T11:46:53;7.73;;;6.93;;
8704;SDS011;4389;41.932;25.904;2024-03-17T11:49:22;7.23;;;6.23;;
8704;SDS011;4389;41.932;25.904;2024-03-17T11:51:48;6.73;;;5.30;;
8704;SDS011;4389;41.932;25.904;2024-03-17T11:54:16;6.10;;;5.47;;
8704;SDS011;4389;41.932;25.904;2024-03-17T11:56:44;6.50;;;4.50;;
8704;SDS011;4389;41.932;25.904;2024-03-17T11:59:12;6.30;;;4.63;;
8704;SDS011;4389;41.932;25.904;2024-03-17T12:01:38;4.67;;;4.27;;
8704;SDS011;4389;41.932;25.904;2024-03-17T12:04:07;12.37;;;5.10;;
8704;SDS011;4389;41.932;25.904;2024-03-17T12:06:33;5.10;;;4.53;;
8704;SDS011;4389;41.932;25.904;2024-03-17T12:09:07;4.80;;;4.33;;
8704;SDS011;4389;41.932;25.904;2024-03-17T12:11:35;7.90;;;5.00;;
8704;SDS011;4389;41.932;25.904;2024-03-17T12:16:48;6.10;;;4.80;;
8704;SDS011;4389;41.932;25.904;2024-03-17T12:19:19;5.07;;;4.57;;
8704;SDS011;4389;41.932;25.904;2024-03-17T12:21:47;9.97;;;6.00;;
8704;SDS011;4389;41.932;25.904;2024-03-17T12:24:16;6.47;;;4.87;;
8704;SDS011;4389;41.932;25.904;2024-03-17T12:26:44;4.77;;;4.27;;
8704;SDS011;4389;41.932;25.904;2024-03-17T12:29:21;4.10;;;3.80;;
8704;SDS011;4389;41.932;25.904;2024-03-17T12:31:49;5.83;;;4.50;;
8704;SDS011;4389;41.932;25.904;2024-03-17T12:34:17;5.87;;;4.10;;
8704;SDS011;4389;41.932;25.904;2024-03-17T12:36:45;6.17;;;3.87;;
8704;SDS011;4389;41.932;25.904;2024-03-17T12:39:18;4.47;;;4.07;;
8704;SDS011;4389;41.932;25.904;2024-03-17T12:42:00;5.80;;;5.03;;
8704;SDS011;4389;41.932;25.904;2024-03-17T12:44:27;4.20;;;3.60;;
8704;SDS011;4389;41.932;25.904;2024-03-17T12:46:55;4.47;;;4.07;;
8704;SDS011;4389;41.932;25.904;2024-03-17T12:49:22;4.83;;;4.20;;
8704;SDS011;4389;41.932;25.904;2024-03-17T12:51:51;5.17;;;4.27;;
8704;SDS011;4389;41.932;25.904;2024-03-17T12:54:19;3.90;;;3.60;;
8704;SDS011;4389;41.932;25.904;2024-03-17T12:56:49;5.40;;;4.50;;
8704;SDS011;4389;41.932;25.904;2024-03-17T12:59:38;3.90;;;3.50;;
8704;SDS011;4389;41.932;25.904;2024-03-17T13:02:22;6.13;;;4.10;;
8704;SDS011;4389;41.932;25.904;2024-03-17T13:05:06;9.37;;;4.53;;
8704;SDS011;4389;41.932;25.904;2024-03-17T13:07:43;5.10;;;4.47;;
8704;SDS011;4389;41.932;25.904;2024-03-17T13:10:12;5.33;;;4.73;;
8704;SDS011;4389;41.932;25.904;2024-03-17T13:12:39;4.83;;;4.33;;
8704;SDS011;4389;41.932;25.904;2024-03-17T13:15:08;7.13;;;4.43;;
8704;SDS011;4389;41.932;25.904;2024-03-17T13:17:37;4.50;;;4.10;;
8704;SDS011;4389;41.932;25.904;2024-03-17T13:20:05;5.40;;;4.90;;
8704;SDS011;4389;41.932;25.904;2024-03-17T13:22:36;4.47;;;4.07;;
8704;SDS011;4389;41.932;25.904;2024-03-17T13:25:06;6.17;;;4.80;;
8704;SDS011;4389;41.932;25.904;2024-03-17T13:27:37;6.13;;;5.40;;
8704;SDS011;4389;41.932;25.904;2024-03-17T13:30:04;6.50;;;4.97;;
8704;SDS011;4389;41.932;25.904;2024-03-17T13:32:32;5.77;;;4.73;;
8704;SDS011;4389;41.932;25.904;2024-03-17T13:34:59;5.10;;;4.60;;
8704;SDS011;4389;41.932;25.904;2024-03-17T13:37:27;5.77;;;4.33;;
8704;SDS011;4389;41.932;25.904;2024-03-17T13:39:54;5.60;;;4.80;;
8704;SDS011;4389;41.932;25.904;2024-03-17T13:42:20;6.37;;;5.03;;
8704;SDS011;4389;41.932;25.904;2024-03-17T13:44:47;5.03;;;4.53;;
8704;SDS011;4389;41.932;25.904;2024-03-17T13:47:14;6.27;;;4.70;;
8704;SDS011;4389;41.932;25.904;2024-03-17T13:49:42;5.20;;;4.70;;
8704;SDS011;4389;41.932;25.904;2024-03-17T13:52:09;6.33;;;4.33;;
8704;SDS011;4389;41.932;25.904;2024-03-17T13:54:37;5.83;;;4.97;;
8704;SDS011;4389;41.932;25.904;2024-03-17T13:57:04;5.07;;;4.57;;
8704;SDS011;4389;41.932;25.904;2024-03-17T13:59:31;9.60;;;4.87;;
8704;SDS011;4389;41.932;25.904;2024-03-17T14:01:59;7.43;;;5.20;;
8704;SDS011;4389;41.932;25.904;2024-03-17T14:04:27;5.17;;;4.40;;
8704;SDS011;4389;41.932;25.904;2024-03-17T14:06:54;7.13;;;4.20;;
8704;SDS011;4389;41.932;25.904;2024-03-17T14:09:20;7.50;;;4.57;;
8704;SDS011;4389;41.932;25.904;2024-03-17T14:11:49;5.10;;;4.60;;
8704;SDS011;4389;41.932;25.904;2024-03-17T14:14:16;6.17;;;4.57;;
8704;SDS011;4389;41.932;25.904;2024-03-17T14:16:43;4.60;;;4.07;;
8704;SDS011;4389;41.932;25.904;2024-03-17T14:19:10;5.63;;;4.57;;
8704;SDS011;4389;41.932;25.904;2024-03-17T14:21:37;10.97;;;4.33;;
8704;SDS011;4389;41.932;25.904;2024-03-17T14:24:04;6.20;;;4.47;;
8704;SDS011;4389;41.932;25.904;2024-03-17T14:26:32;6.07;;;4.47;;
8704;SDS011;4389;41.932;25.904;2024-03-17T14:29:01;4.90;;;4.40;;
8704;SDS011;4389;41.932;25.904;2024-03-17T14:31:31;4.83;;;4.37;;
8704;SDS011;4389;41.932;25.904;2024-03-17T14:34:00;4.50;;;4.10;;
8704;SDS011;4389;41.932;25.904;2024-03-17T14:36:27;5.53;;;5.03;;
8704;SDS011;4389;41.932;25.904;2024-03-17T14:38:56;8.77;;;5.00;;
8704;SDS011;4389;41.932;25.904;2024-03-17T14:41:24;7.47;;;4.47;;
8704;SDS011;4389;41.932;25.904;2024-03-17T14:43:51;5.37;;;4.63;;
8704;SDS011;4389;41.932;25.904;2024-03-17T14:46:19;9.70;;;5.33;;
8704;SDS011;4389;41.932;25.904;2024-03-17T14:48:46;6.27;;;4.77;;
8704;SDS011;4389;41.932;25.904;2024-03-17T14:51:13;5.80;;;4.70;;
8704;SDS011;4389;41.932;25.904;2024-03-17T14:53:39;6.27;;;5.03;;
8704;SDS011;4389;41.932;25.904;2024-03-17T14:56:13;8.37;;;5.53;;